createdAt,value
2022-08-19T00:00:41.282Z,98.06
2022-08-19T00:03:09.256Z,97.20
2022-08-19T00:05:37.917Z,97.13
2022-08-19T00:08:05.604Z,97.26
2022-08-19T00:10:34.989Z,98.22
2022-08-19T00:13:02.782Z,99.05
2022-08-19T00:15:30.388Z,99.10
2022-08-19T00:17:58.088Z,99.21
2022-08-19T00:20:26.774Z,98.08
2022-08-19T00:22:55.262Z,97.90
2022-08-19T00:25:23.621Z,97.50
2022-08-19T00:28:00.288Z,96.30
2022-08-19T00:30:28.513Z,95.92
2022-08-19T00:32:56.510Z,96.03
2022-08-19T00:35:24.273Z,96.09
2022-08-19T00:37:52.576Z,95.98
2022-08-19T00:40:20.840Z,95.80
2022-08-19T00:42:48.874Z,95.67
2022-08-19T00:45:21.078Z,95.92
2022-08-19T00:47:48.875Z,95.83
2022-08-19T00:50:19.818Z,95.96
2022-08-19T00:52:51.176Z,95.86
2022-08-19T00:55:23.017Z,96.43
2022-08-19T00:57:55.395Z,97.60
2022-08-19T01:00:26.719Z,97.50
2022-08-19T01:02:55.566Z,97.81
2022-08-19T01:05:28.293Z,98.99
2022-08-19T01:07:58.113Z,100.00
2022-08-19T01:10:30.727Z,100.00
2022-08-19T01:13:02.853Z,100.00
2022-08-19T01:15:35.303Z,100.00
2022-08-19T01:18:11.713Z,100.00
2022-08-19T01:20:40.893Z,100.00
2022-08-19T01:23:09.921Z,100.00
2022-08-19T01:25:43.389Z,100.00
2022-08-19T01:28:19.769Z,100.00
2022-08-19T01:31:07.960Z,100.00
2022-08-19T01:33:35.973Z,100.00
2022-08-19T01:36:09.464Z,100.00
2022-08-19T01:38:44.163Z,100.00
2022-08-19T01:41:13.687Z,100.00
2022-08-19T01:44:13.398Z,100.00
2022-08-19T01:46:29.519Z,100.00
2022-08-19T01:48:57.138Z,100.00
2022-08-19T01:51:24.858Z,100.00
2022-08-19T01:53:54.653Z,100.00
2022-08-19T01:56:22.914Z,100.00
2022-08-19T01:58:55.745Z,100.00
2022-08-19T02:01:23.504Z,100.00
2022-08-19T02:03:56.926Z,100.00
2022-08-19T02:06:26.797Z,100.00
2022-08-19T02:08:57.606Z,100.00
2022-08-19T02:11:32.240Z,100.00
2022-08-19T02:14:00.790Z,100.00
2022-08-19T02:16:28.459Z,100.00
2022-08-19T02:18:56.261Z,100.00
2022-08-19T02:21:25.938Z,100.00
2022-08-19T02:23:53.587Z,100.00
2022-08-19T02:26:23.175Z,100.00
2022-08-19T02:28:51.061Z,100.00
2022-08-19T02:31:21.022Z,100.00
2022-08-19T02:33:49.914Z,100.00
2022-08-19T02:36:21.082Z,100.00
2022-08-19T02:38:54.718Z,100.00
2022-08-19T02:41:27.402Z,100.00
2022-08-19T02:44:26.252Z,100.00
2022-08-19T02:46:44.511Z,100.00
2022-08-19T02:49:12.480Z,100.00
2022-08-19T02:51:43.019Z,100.00
2022-08-19T02:54:13.672Z,100.00
2022-08-19T02:56:44.318Z,100.00
2022-08-19T02:59:12.766Z,100.00
2022-08-19T03:01:43.040Z,100.00
2022-08-19T03:04:13.194Z,100.00
2022-08-19T03:06:42.187Z,100.00
2022-08-19T03:09:10.759Z,100.00
2022-08-19T03:11:39.079Z,100.00
2022-08-19T03:14:10.243Z,100.00
2022-08-19T03:16:44.737Z,100.00
2022-08-19T03:19:12.608Z,100.00
2022-08-19T03:21:40.275Z,100.00
2022-08-19T03:24:10.989Z,100.00
2022-08-19T03:26:41.287Z,100.00
2022-08-19T03:29:11.366Z,100.00
2022-08-19T03:31:48.631Z,100.00
2022-08-19T03:34:23.134Z,100.00
2022-08-19T03:36:50.848Z,100.00
2022-08-19T03:39:18.768Z,100.00
2022-08-19T03:41:48.479Z,100.00
2022-08-19T03:44:21.650Z,100.00
2022-08-19T03:46:53.306Z,100.00
2022-08-19T03:49:27.237Z,100.00
2022-08-19T03:51:57.837Z,100.00
2022-08-19T03:54:27.677Z,100.00
2022-08-19T03:56:57.313Z,100.00
2022-08-19T03:59:34.570Z,100.00
2022-08-19T04:02:05.310Z,100.00
2022-08-19T04:04:33.069Z,100.00
2022-08-19T04:07:00.870Z,100.00
2022-08-19T04:09:29.000Z,100.00
2022-08-19T04:11:59.593Z,100.00
2022-08-19T04:14:31.617Z,100.00
2022-08-19T04:17:00.261Z,100.00
2022-08-19T04:19:29.502Z,100.00
2022-08-19T04:21:57.460Z,100.00
2022-08-19T04:24:25.760Z,100.00
2022-08-19T04:26:53.586Z,100.00
2022-08-19T04:29:28.015Z,100.00
2022-08-19T04:31:58.452Z,100.00
2022-08-19T04:34:27.636Z,100.00
2022-08-19T04:36:57.236Z,100.00
2022-08-19T04:39:49.346Z,100.00
2022-08-19T04:42:35.625Z,100.00
2022-08-19T04:45:03.872Z,100.00
2022-08-19T04:47:49.186Z,100.00
2022-08-19T04:50:23.905Z,100.00
2022-08-19T04:52:53.457Z,100.00
2022-08-19T04:55:21.348Z,100.00
2022-08-19T04:57:49.253Z,100.00
2022-08-19T05:00:17.713Z,100.00
2022-08-19T05:02:46.808Z,100.00
2022-08-19T05:05:14.986Z,100.00
2022-08-19T05:07:43.071Z,100.00
2022-08-19T05:10:12.049Z,100.00
2022-08-19T05:12:40.036Z,100.00
2022-08-19T05:15:09.319Z,100.00
2022-08-19T05:17:39.064Z,100.00
2022-08-19T05:20:28.003Z,100.00
2022-08-19T05:22:55.807Z,100.00
2022-08-19T05:25:26.235Z,100.00
2022-08-19T05:27:53.990Z,100.00
2022-08-19T05:30:33.389Z,100.00
2022-08-19T05:33:13.119Z,100.00
2022-08-19T05:35:42.320Z,100.00
2022-08-19T05:38:10.121Z,100.00
2022-08-19T05:40:38.446Z,100.00
2022-08-19T05:43:08.073Z,100.00
2022-08-19T05:45:40.958Z,100.00
2022-08-19T05:48:08.651Z,100.00
2022-08-19T05:50:39.079Z,100.00
2022-08-19T05:53:13.140Z,100.00
2022-08-19T05:55:41.039Z,100.00
2022-08-19T05:58:09.021Z,100.00
2022-08-19T06:00:50.463Z,100.00
2022-08-19T06:03:31.978Z,100.00
2022-08-19T06:06:06.577Z,100.00
2022-08-19T06:08:55.531Z,100.00
2022-08-19T06:11:26.372Z,100.00
2022-08-19T06:14:00.265Z,100.00
2022-08-19T06:16:28.881Z,100.00
2022-08-19T06:18:58.892Z,100.00
2022-08-19T06:21:28.915Z,100.00
2022-08-19T06:23:59.150Z,100.00
2022-08-19T06:26:27.504Z,100.00
2022-08-19T06:28:55.839Z,100.00
2022-08-19T06:31:27.801Z,100.00
2022-08-19T06:33:55.561Z,100.00
2022-08-19T06:36:28.015Z,100.00
2022-08-19T06:38:55.886Z,100.00
2022-08-19T06:41:24.982Z,100.00
2022-08-19T06:43:55.696Z,100.00
2022-08-19T06:46:25.110Z,100.00
2022-08-19T06:48:55.269Z,100.00
2022-08-19T06:51:24.908Z,100.00
2022-08-19T06:53:55.915Z,100.00
2022-08-19T06:56:31.977Z,100.00
2022-08-19T06:59:00.483Z,100.00
2022-08-19T07:01:28.706Z,100.00
2022-08-19T07:03:57.540Z,100.00
2022-08-19T07:06:43.186Z,100.00
2022-08-19T07:09:14.016Z,100.00
2022-08-19T07:11:46.093Z,100.00
2022-08-19T07:14:19.407Z,100.00
2022-08-19T07:16:49.341Z,100.00
2022-08-19T07:19:19.267Z,100.00
2022-08-19T07:21:49.977Z,100.00
2022-08-19T07:24:19.465Z,100.00
2022-08-19T07:26:51.612Z,100.00
2022-08-19T07:29:24.159Z,100.00
2022-08-19T07:31:56.876Z,100.00
2022-08-19T07:34:26.173Z,100.00
2022-08-19T07:36:55.596Z,100.00
2022-08-19T07:39:26.070Z,100.00
2022-08-19T07:41:57.136Z,100.00
2022-08-19T07:44:25.157Z,100.00
2022-08-19T07:46:56.720Z,100.00
2022-08-19T07:49:25.243Z,100.00
2022-08-19T07:51:55.643Z,100.00
2022-08-19T07:54:25.363Z,100.00
2022-08-19T07:56:53.765Z,100.00
2022-08-19T07:59:23.582Z,100.00
2022-08-19T08:01:52.176Z,100.00
2022-08-19T08:04:37.883Z,100.00
2022-08-19T08:07:24.155Z,100.00
2022-08-19T08:09:52.589Z,100.00
2022-08-19T08:12:34.136Z,100.00
2022-08-19T08:15:12.765Z,100.00
2022-08-19T08:17:49.443Z,100.00
2022-08-19T08:20:20.240Z,100.00
2022-08-19T08:23:06.676Z,100.00
2022-08-19T08:25:36.283Z,100.00
2022-08-19T08:28:06.641Z,100.00
2022-08-19T08:30:37.947Z,100.00
2022-08-19T08:33:13.404Z,100.00
2022-08-19T08:35:43.562Z,100.00
2022-08-19T08:38:20.407Z,100.00
2022-08-19T08:40:54.185Z,100.00
2022-08-19T08:43:32.337Z,100.00
2022-08-19T08:46:07.650Z,100.00
2022-08-19T08:48:42.604Z,100.00
2022-08-19T08:51:14.681Z,100.00
2022-08-19T08:53:51.303Z,100.00
2022-08-19T08:56:24.395Z,100.00
2022-08-19T08:58:59.387Z,100.00
2022-08-19T09:01:30.278Z,100.00
2022-08-19T09:06:40.747Z,100.00
2022-08-19T09:09:17.831Z,100.00
2022-08-19T09:11:58.465Z,100.00
2022-08-19T09:14:52.564Z,100.00
2022-08-19T09:17:29.230Z,100.00
2022-08-19T09:19:59.946Z,100.00
2022-08-19T09:22:29.525Z,100.00
2022-08-19T09:24:57.456Z,100.00
2022-08-19T09:27:42.310Z,100.00
2022-08-19T09:30:15.705Z,100.00
2022-08-19T09:32:46.234Z,100.00
2022-08-19T09:35:15.863Z,100.00
2022-08-19T09:37:47.253Z,100.00
2022-08-19T09:40:15.346Z,100.00
2022-08-19T09:42:50.239Z,100.00
2022-08-19T09:45:23.661Z,100.00
2022-08-19T09:47:55.615Z,100.00
2022-08-19T09:50:24.601Z,100.00
2022-08-19T09:52:53.961Z,100.00
2022-08-19T09:55:31.971Z,100.00
2022-08-19T09:58:01.802Z,100.00
2022-08-19T10:00:29.834Z,100.00
2022-08-19T10:02:59.032Z,100.00
2022-08-19T10:05:44.542Z,100.00
2022-08-19T10:08:17.656Z,100.00
2022-08-19T10:10:47.159Z,100.00
2022-08-19T10:13:17.366Z,100.00
2022-08-19T10:15:48.205Z,100.00
2022-08-19T10:18:19.466Z,100.00
2022-08-19T10:20:51.521Z,100.00
2022-08-19T10:23:21.430Z,100.00
2022-08-19T10:25:49.734Z,100.00
2022-08-19T10:28:19.359Z,100.00
2022-08-19T10:30:48.049Z,100.00
2022-08-19T10:33:16.200Z,100.00
2022-08-19T10:36:07.793Z,100.00
2022-08-19T10:38:36.181Z,100.00
2022-08-19T10:41:13.329Z,100.00
2022-08-19T10:43:41.499Z,100.00
2022-08-19T10:46:16.696Z,100.00
2022-08-19T10:48:45.730Z,100.00
2022-08-19T10:51:32.302Z,100.00
2022-08-19T10:54:00.949Z,100.00
2022-08-19T10:56:46.952Z,100.00
2022-08-19T10:59:15.591Z,100.00
2022-08-19T11:01:44.958Z,100.00
2022-08-19T11:04:14.578Z,100.00
2022-08-19T11:06:44.493Z,100.00
2022-08-19T11:09:12.848Z,100.00
2022-08-19T11:11:41.877Z,100.00
2022-08-19T11:14:10.910Z,100.00
2022-08-19T11:16:39.871Z,100.00
2022-08-19T11:19:09.436Z,100.00
2022-08-19T11:21:38.504Z,100.00
2022-08-19T11:24:10.325Z,100.00
2022-08-19T11:26:39.755Z,100.00
2022-08-19T11:29:12.503Z,100.00
2022-08-19T11:31:42.481Z,100.00
2022-08-19T11:34:12.882Z,100.00
2022-08-19T11:36:43.764Z,100.00
2022-08-19T11:39:14.863Z,100.00
2022-08-19T11:41:42.610Z,100.00
2022-08-19T11:44:10.856Z,100.00
2022-08-19T11:46:39.907Z,99.36
2022-08-19T11:49:13.782Z,100.00
2022-08-19T11:51:43.993Z,100.00
2022-08-19T11:54:14.449Z,100.00
2022-08-19T11:56:42.573Z,100.00
2022-08-19T11:59:14.592Z,100.00
2022-08-19T12:01:44.460Z,100.00
2022-08-19T12:04:12.696Z,100.00
2022-08-19T12:06:42.689Z,99.87
2022-08-19T12:09:11.542Z,100.00
2022-08-19T12:11:41.586Z,100.00
2022-08-19T12:14:14.496Z,100.00
2022-08-19T12:16:48.611Z,100.00
2022-08-19T12:19:21.948Z,100.00
2022-08-19T12:21:50.981Z,100.00
2022-08-19T12:24:23.808Z,100.00
2022-08-19T12:26:54.388Z,100.00
2022-08-19T12:29:30.540Z,100.00
2022-08-19T12:32:02.036Z,100.00
2022-08-19T12:34:32.034Z,100.00
2022-08-19T12:37:00.609Z,100.00
2022-08-19T12:39:28.192Z,100.00
2022-08-19T12:41:57.337Z,100.00
2022-08-19T12:44:31.922Z,100.00
2022-08-19T12:47:04.012Z,100.00
2022-08-19T12:49:54.204Z,100.00
2022-08-19T12:52:24.040Z,100.00
2022-08-19T12:54:54.516Z,99.20
2022-08-19T12:57:31.459Z,99.51
2022-08-19T13:00:01.808Z,100.00
2022-08-19T13:02:38.250Z,100.00
2022-08-19T13:05:09.225Z,100.00
2022-08-19T13:07:38.316Z,100.00
2022-08-19T13:10:07.580Z,100.00
2022-08-19T13:12:37.086Z,99.59
2022-08-19T13:15:10.699Z,99.10
2022-08-19T13:17:40.053Z,97.66
2022-08-19T13:20:09.744Z,97.42
2022-08-19T13:22:37.587Z,96.71
2022-08-19T13:25:06.559Z,96.66
2022-08-19T13:27:34.374Z,97.09
2022-08-19T13:30:23.153Z,97.84
2022-08-19T13:33:08.439Z,97.65
2022-08-19T13:35:36.251Z,98.29
2022-08-19T13:38:05.683Z,98.78
2022-08-19T13:40:37.440Z,99.75
2022-08-19T13:43:12.488Z,98.52
2022-08-19T13:45:57.410Z,98.56
2022-08-19T13:48:27.268Z,98.09
2022-08-19T13:50:55.514Z,98.09
2022-08-19T13:53:23.375Z,98.66
2022-08-19T13:55:52.010Z,99.12
2022-08-19T13:58:20.170Z,100.00
2022-08-19T14:00:49.528Z,100.00
2022-08-19T14:03:18.631Z,100.00
2022-08-19T14:05:47.799Z,100.00
2022-08-19T14:08:15.594Z,100.00
2022-08-19T14:10:45.197Z,100.00
2022-08-19T14:13:16.087Z,100.00
2022-08-19T14:15:45.502Z,100.00
2022-08-19T14:18:13.602Z,100.00
2022-08-19T14:20:43.379Z,100.00
2022-08-19T14:23:11.703Z,100.00
2022-08-19T14:25:39.515Z,100.00
2022-08-19T14:28:07.746Z,100.00
2022-08-19T14:30:38.621Z,100.00
2022-08-19T14:33:08.116Z,100.00
2022-08-19T14:35:36.529Z,100.00
2022-08-19T14:38:07.646Z,100.00
2022-08-19T14:40:35.852Z,100.00
2022-08-19T14:43:09.137Z,100.00
2022-08-19T14:45:47.358Z,100.00
2022-08-19T14:48:22.693Z,100.00
2022-08-19T14:50:58.081Z,100.00
2022-08-19T14:53:31.363Z,100.00
2022-08-19T14:56:07.606Z,100.00
2022-08-19T14:58:45.990Z,100.00
2022-08-19T15:01:24.419Z,100.00
2022-08-19T15:03:58.010Z,100.00
2022-08-19T15:06:26.839Z,100.00
2022-08-19T15:08:57.769Z,100.00
2022-08-19T15:11:30.050Z,100.00
2022-08-19T15:13:58.805Z,100.00
2022-08-19T15:16:28.739Z,100.00
2022-08-19T15:18:58.717Z,100.00
2022-08-19T15:21:27.706Z,100.00
2022-08-19T15:24:08.426Z,100.00
2022-08-19T15:26:44.180Z,100.00
2022-08-19T15:29:28.120Z,100.00
2022-08-19T15:32:01.870Z,100.00
2022-08-19T15:34:39.426Z,100.00
2022-08-19T15:37:14.360Z,100.00
2022-08-19T15:39:49.016Z,100.00
2022-08-19T15:42:29.641Z,100.00
2022-08-19T15:45:02.805Z,100.00
2022-08-19T15:47:34.855Z,100.00
2022-08-19T15:50:10.516Z,100.00
2022-08-19T15:53:03.189Z,100.00
2022-08-19T15:55:39.614Z,100.00
2022-08-19T15:58:39.928Z,100.00
2022-08-19T16:01:31.231Z,100.00
2022-08-19T16:04:20.684Z,100.00
2022-08-19T16:06:50.690Z,100.00
2022-08-19T16:09:24.932Z,100.00
2022-08-19T16:11:59.628Z,100.00
2022-08-19T16:14:35.150Z,100.00
2022-08-19T16:17:12.169Z,100.00
2022-08-19T16:19:40.582Z,100.00
2022-08-19T16:22:09.526Z,100.00
2022-08-19T16:24:37.815Z,100.00
2022-08-19T16:27:07.564Z,100.00
2022-08-19T16:29:39.159Z,100.00
2022-08-19T16:32:12.749Z,100.00
2022-08-19T16:34:42.603Z,100.00
2022-08-19T16:37:10.911Z,100.00
2022-08-19T16:39:40.377Z,100.00
2022-08-19T16:42:18.279Z,100.00
2022-08-19T16:44:54.626Z,100.00
2022-08-19T16:47:29.211Z,100.00
2022-08-19T16:49:57.526Z,100.00
2022-08-19T16:52:26.901Z,100.00
2022-08-19T16:54:55.062Z,100.00
2022-08-19T16:57:26.645Z,100.00
2022-08-19T17:00:17.286Z,100.00
2022-08-19T17:02:58.260Z,100.00
2022-08-19T17:05:35.802Z,100.00
2022-08-19T17:11:18.470Z,100.00
2022-08-19T17:14:03.248Z,100.00
2022-08-19T17:16:49.737Z,100.00
2022-08-19T17:19:32.143Z,100.00
2022-08-19T17:22:19.707Z,100.00
2022-08-19T17:24:52.274Z,100.00
2022-08-19T17:27:35.917Z,100.00
2022-08-19T17:30:22.658Z,100.00
2022-08-19T17:32:56.647Z,100.00
2022-08-19T17:35:28.935Z,100.00
2022-08-19T17:38:11.667Z,100.00
2022-08-19T17:41:00.686Z,100.00
2022-08-19T17:43:43.768Z,100.00
2022-08-19T17:46:20.716Z,100.00
2022-08-19T17:48:59.237Z,100.00
2022-08-19T17:51:47.791Z,100.00
2022-08-19T17:54:25.266Z,100.00
2022-08-19T17:57:16.633Z,100.00
2022-08-19T17:59:59.368Z,100.00
2022-08-19T18:02:53.172Z,100.00
2022-08-19T18:05:38.786Z,100.00
2022-08-19T18:08:24.753Z,100.00
2022-08-19T18:10:58.680Z,100.00
2022-08-19T18:13:36.171Z,100.00
2022-08-19T18:16:12.742Z,100.00
2022-08-19T18:19:02.879Z,100.00
2022-08-19T18:21:38.267Z,100.00
2022-08-19T18:24:30.039Z,100.00
2022-08-19T18:27:13.292Z,100.00
2022-08-19T18:29:50.039Z,100.00
2022-08-19T18:32:23.814Z,100.00
2022-08-19T18:35:13.256Z,100.00
2022-08-19T18:37:42.366Z,100.00
2022-08-19T18:40:31.423Z,100.00
2022-08-19T18:43:19.326Z,100.00
2022-08-19T18:46:07.138Z,100.00
2022-08-19T18:48:53.145Z,100.00
2022-08-19T18:51:28.157Z,100.00
2022-08-19T18:53:58.891Z,100.00
2022-08-19T18:56:31.892Z,100.00
2022-08-19T18:59:00.804Z,100.00
2022-08-19T19:01:31.290Z,100.00
2022-08-19T19:04:02.495Z,100.00
2022-08-19T19:06:38.237Z,100.00
2022-08-19T19:09:07.640Z,100.00
2022-08-19T19:11:39.991Z,100.00
2022-08-19T19:14:19.205Z,100.00
2022-08-19T19:16:55.487Z,100.00
2022-08-19T19:19:24.062Z,100.00
2022-08-19T19:21:54.025Z,100.00
2022-08-19T19:24:25.247Z,100.00
2022-08-19T19:26:54.318Z,100.00
2022-08-19T19:29:23.132Z,100.00
2022-08-19T19:31:53.022Z,100.00
2022-08-19T19:34:29.207Z,100.00
2022-08-19T19:36:59.420Z,100.00
2022-08-19T19:39:42.964Z,100.00
2022-08-19T19:42:20.485Z,100.00
2022-08-19T19:44:51.137Z,100.00
2022-08-19T19:47:20.052Z,100.00
2022-08-19T19:50:13.908Z,100.00
2022-08-19T19:52:44.132Z,100.00
2022-08-19T19:55:15.797Z,100.00
2022-08-19T19:57:45.227Z,100.00
2022-08-19T20:00:16.736Z,100.00
2022-08-19T20:02:49.607Z,100.00
2022-08-19T20:05:21.451Z,100.00
2022-08-19T20:08:10.841Z,100.00
2022-08-19T20:10:40.193Z,100.00
2022-08-19T20:13:10.142Z,100.00
2022-08-19T20:15:43.470Z,100.00
2022-08-19T20:18:13.469Z,100.00
2022-08-19T20:20:42.253Z,100.00
2022-08-19T20:23:11.777Z,100.00
2022-08-19T20:25:40.849Z,100.00
2022-08-19T20:28:12.426Z,100.00
2022-08-19T20:30:46.286Z,100.00
2022-08-19T20:33:14.960Z,100.00
2022-08-19T20:35:44.660Z,100.00
2022-08-19T20:38:14.351Z,100.00
2022-08-19T20:40:44.498Z,100.00
2022-08-19T20:43:15.078Z,100.00
2022-08-19T20:45:43.341Z,100.00
2022-08-19T20:48:12.545Z,100.00
2022-08-19T20:50:41.261Z,100.00
2022-08-19T20:53:18.378Z,100.00
2022-08-19T20:55:51.379Z,100.00
2022-08-19T20:58:21.347Z,100.00
2022-08-19T21:00:50.434Z,100.00
2022-08-19T21:03:21.183Z,100.00
2022-08-19T21:05:50.092Z,100.00
2022-08-19T21:08:20.249Z,100.00
2022-08-19T21:10:50.392Z,100.00
2022-08-19T21:13:19.887Z,100.00
2022-08-19T21:15:48.849Z,100.00
2022-08-19T21:18:19.860Z,100.00
2022-08-19T21:20:48.560Z,100.00
2022-08-19T21:23:21.187Z,100.00
2022-08-19T21:25:54.317Z,100.00
2022-08-19T21:28:35.175Z,100.00
2022-08-19T21:31:06.299Z,100.00
2022-08-19T21:33:34.487Z,100.00
2022-08-19T21:36:02.653Z,100.00
2022-08-19T21:38:32.259Z,100.00
2022-08-19T21:41:03.573Z,100.00
2022-08-19T21:43:35.151Z,100.00
2022-08-19T21:46:03.441Z,100.00
2022-08-19T21:48:31.448Z,100.00
2022-08-19T21:51:00.147Z,100.00
2022-08-19T21:53:31.550Z,100.00
2022-08-19T21:56:05.045Z,100.00
2022-08-19T21:58:39.011Z,100.00
2022-08-19T22:01:08.173Z,100.00
2022-08-19T22:03:37.918Z,100.00
2022-08-19T22:06:06.453Z,100.00
2022-08-19T22:08:34.974Z,100.00
2022-08-19T22:11:05.325Z,100.00
2022-08-19T22:13:40.105Z,100.00
2022-08-19T22:16:09.489Z,100.00
2022-08-19T22:18:37.847Z,100.00
2022-08-19T22:21:11.391Z,100.00
2022-08-19T22:23:40.510Z,100.00
2022-08-19T22:26:10.661Z,100.00
2022-08-19T22:28:39.671Z,100.00
2022-08-19T22:31:09.152Z,100.00
2022-08-19T22:33:38.433Z,100.00
2022-08-19T22:36:08.582Z,100.00
2022-08-19T22:38:38.350Z,100.00
2022-08-19T22:41:07.949Z,100.00
2022-08-19T22:43:38.120Z,100.00
2022-08-19T22:46:16.991Z,100.00
2022-08-19T22:48:46.415Z,100.00
2022-08-19T22:51:31.901Z,100.00
2022-08-19T22:54:00.427Z,100.00
2022-08-19T22:56:31.279Z,100.00
2022-08-19T22:59:03.506Z,100.00
2022-08-19T23:01:32.237Z,100.00
2022-08-19T23:04:03.762Z,100.00
2022-08-19T23:06:33.550Z,100.00
2022-08-19T23:09:04.718Z,100.00
2022-08-19T23:11:35.578Z,100.00
2022-08-19T23:14:08.722Z,100.00
2022-08-19T23:16:37.436Z,100.00
2022-08-19T23:19:08.618Z,100.00
2022-08-19T23:21:37.337Z,100.00
2022-08-19T23:24:06.608Z,100.00
2022-08-19T23:26:36.074Z,100.00
2022-08-19T23:29:22.671Z,100.00
2022-08-19T23:31:52.771Z,100.00
2022-08-19T23:34:21.001Z,100.00
2022-08-19T23:36:50.932Z,100.00
2022-08-19T23:39:20.389Z,100.00
2022-08-19T23:41:51.003Z,100.00
2022-08-19T23:44:21.760Z,100.00
2022-08-19T23:46:55.084Z,100.00
2022-08-19T23:49:25.562Z,100.00
2022-08-19T23:51:55.605Z,100.00
2022-08-19T23:54:34.347Z,100.00
2022-08-19T23:57:13.454Z,100.00
2022-08-19T23:59:45.185Z,100.00
